createdAt,value
2018-09-05T00:01:14.061Z,9.58
2018-09-05T00:03:42.499Z,8.95
2018-09-05T00:06:10.968Z,7.78
2018-09-05T00:08:39.424Z,11.78
2018-09-05T00:11:07.873Z,11.28
2018-09-05T00:13:36.344Z,10.88
2018-09-05T00:16:04.984Z,12.43
2018-09-05T00:18:33.412Z,15.30
2018-09-05T00:21:01.947Z,9.43
2018-09-05T00:23:30.397Z,12.45
2018-09-05T00:25:58.832Z,8.23
2018-09-05T00:28:27.385Z,7.53
2018-09-05T00:30:55.785Z,9.68
2018-09-05T00:33:24.212Z,7.92
2018-09-05T00:35:52.628Z,8.65
2018-09-05T00:38:21.105Z,7.42
2018-09-05T00:40:49.553Z,6.50
2018-09-05T00:43:17.984Z,7.12
2018-09-05T00:45:46.382Z,6.45
2018-09-05T00:48:14.826Z,6.40
2018-09-05T00:50:43.272Z,6.45
2018-09-05T00:53:11.693Z,8.90
2018-09-05T00:55:40.116Z,7.22
2018-09-05T00:58:08.557Z,7.87
2018-09-05T01:00:37.032Z,9.93
2018-09-05T01:03:05.507Z,11.90
2018-09-05T01:05:33.908Z,11.90
2018-09-05T01:08:02.345Z,12.68
2018-09-05T01:10:30.787Z,8.88
2018-09-05T01:12:59.366Z,10.53
2018-09-05T01:15:27.788Z,6.90
2018-09-05T01:17:56.247Z,7.03
2018-09-05T01:20:24.652Z,7.78
2018-09-05T01:22:53.384Z,6.30
2018-09-05T01:25:21.853Z,8.23
2018-09-05T01:27:50.305Z,9.43
2018-09-05T01:30:18.739Z,8.73
2018-09-05T01:32:47.190Z,6.15
2018-09-05T01:35:15.641Z,6.75
2018-09-05T01:37:44.182Z,7.42
2018-09-05T01:40:12.630Z,5.80
2018-09-05T01:42:41.081Z,5.47
2018-09-05T01:45:09.496Z,6.17
2018-09-05T01:47:37.903Z,9.20
2018-09-05T01:50:06.376Z,6.37
2018-09-05T01:52:34.786Z,7.87
2018-09-05T01:55:03.226Z,6.83
2018-09-05T01:57:31.636Z,6.20
2018-09-05T01:59:59.783Z,8.00
2018-09-05T02:02:28.200Z,9.10
2018-09-05T02:04:56.804Z,5.90
2018-09-05T02:07:25.208Z,6.00
2018-09-05T02:09:53.656Z,6.70
2018-09-05T02:12:22.157Z,5.30
2018-09-05T02:14:50.600Z,7.22
2018-09-05T02:17:19.013Z,7.60
2018-09-05T02:19:47.445Z,8.00
2018-09-05T02:22:15.898Z,6.10
2018-09-05T02:24:44.324Z,5.53
2018-09-05T02:27:12.733Z,4.75
2018-09-05T02:29:41.350Z,5.33
2018-09-05T02:32:09.788Z,4.90
2018-09-05T02:34:38.223Z,5.47
2018-09-05T02:37:06.668Z,5.22
2018-09-05T02:39:35.141Z,5.17
2018-09-05T02:42:03.576Z,6.30
2018-09-05T02:44:32.060Z,6.10
2018-09-05T02:47:00.660Z,4.65
2018-09-05T02:49:29.101Z,5.40
2018-09-05T02:51:57.520Z,4.50
2018-09-05T02:54:25.662Z,5.37
2018-09-05T02:56:54.104Z,6.40
2018-09-05T02:59:22.552Z,4.33
2018-09-05T03:01:51.014Z,4.78
2018-09-05T03:04:19.444Z,6.33
2018-09-05T03:06:47.857Z,5.03
2018-09-05T03:09:16.327Z,4.30
2018-09-05T03:11:44.760Z,5.20
2018-09-05T03:14:13.199Z,4.80
2018-09-05T03:16:41.601Z,5.95
2018-09-05T03:19:10.048Z,5.33
2018-09-05T03:21:38.460Z,7.37
2018-09-05T03:24:06.872Z,3.60
2018-09-05T03:26:35.339Z,4.87
2018-09-05T03:29:03.780Z,5.03
2018-09-05T03:31:32.225Z,5.08
2018-09-05T03:34:00.640Z,3.45
2018-09-05T03:36:29.062Z,5.00
2018-09-05T03:38:57.813Z,7.62
2018-09-05T03:41:26.052Z,5.25
2018-09-05T03:43:54.459Z,3.47
2018-09-05T03:46:22.940Z,4.40
2018-09-05T03:48:51.912Z,4.35
2018-09-05T03:51:20.344Z,5.90
2018-09-05T03:53:48.773Z,6.12
2018-09-05T03:56:17.211Z,4.37
2018-09-05T03:58:45.605Z,3.67
2018-09-05T04:01:14.064Z,7.67
2018-09-05T04:03:42.478Z,5.33
2018-09-05T04:06:10.929Z,5.97
2018-09-05T04:08:39.345Z,4.17
2018-09-05T04:11:07.767Z,3.72
2018-09-05T04:13:36.162Z,6.50
2018-09-05T04:16:04.576Z,4.12
2018-09-05T04:18:32.989Z,3.85
2018-09-05T04:21:01.405Z,4.28
2018-09-05T04:23:33.800Z,5.78
2018-09-05T04:26:02.247Z,4.10
2018-09-05T04:28:30.648Z,5.65
2018-09-05T04:30:59.101Z,3.83
2018-09-05T04:33:27.529Z,4.37
2018-09-05T04:35:55.964Z,6.70
2018-09-05T04:38:24.357Z,3.95
2018-09-05T04:40:52.777Z,6.83
2018-09-05T04:43:22.171Z,5.72
2018-09-05T04:45:50.713Z,4.25
2018-09-05T04:48:19.176Z,3.83
2018-09-05T04:50:47.581Z,3.37
2018-09-05T04:53:16.080Z,5.05
2018-09-05T04:55:44.489Z,3.92
2018-09-05T04:58:12.944Z,4.22
2018-09-05T05:00:41.396Z,4.55
2018-09-05T05:03:09.832Z,5.53
2018-09-05T05:05:38.525Z,4.40
2018-09-05T05:08:06.952Z,4.22
2018-09-05T05:10:35.369Z,5.40
2018-09-05T05:13:03.848Z,5.37
2018-09-05T05:15:32.244Z,5.40
2018-09-05T05:18:00.833Z,6.00
2018-09-05T05:20:29.266Z,3.85
2018-09-05T05:22:57.725Z,5.25
2018-09-05T05:25:26.139Z,5.00
2018-09-05T05:27:54.570Z,3.77
2018-09-05T05:30:22.660Z,3.10
2018-09-05T05:32:51.453Z,5.22
2018-09-05T05:35:19.839Z,7.15
2018-09-05T05:37:48.333Z,6.25
2018-09-05T05:40:16.813Z,3.70
2018-09-05T05:42:45.304Z,3.70
2018-09-05T05:45:13.716Z,6.12
2018-09-05T05:47:42.160Z,3.45
2018-09-05T05:50:10.626Z,4.15
2018-09-05T05:52:39.110Z,3.92
2018-09-05T05:55:07.569Z,9.25
2018-09-05T05:57:36.036Z,4.42
2018-09-05T06:00:04.840Z,6.22
2018-09-05T06:02:33.276Z,7.70
2018-09-05T06:05:01.762Z,5.60
2018-09-05T06:07:30.209Z,5.25
2018-09-05T06:09:58.629Z,5.37
2018-09-05T06:12:27.378Z,6.37
2018-09-05T06:14:55.822Z,4.47
2018-09-05T06:17:24.333Z,7.83
2018-09-05T06:19:52.786Z,4.03
2018-09-05T06:22:21.209Z,5.15
2018-09-05T06:24:49.688Z,8.65
2018-09-05T06:27:18.172Z,7.65
2018-09-05T06:29:46.581Z,8.33
2018-09-05T06:32:15.029Z,10.93
2018-09-05T06:34:43.442Z,5.20
2018-09-05T06:37:11.882Z,5.90
2018-09-05T06:39:40.304Z,6.05
2018-09-05T06:42:08.709Z,7.67
2018-09-05T06:44:37.145Z,9.63
2018-09-05T06:47:05.584Z,13.70
2018-09-05T06:49:34.131Z,9.20
2018-09-05T06:52:02.552Z,6.08
2018-09-05T06:54:31.016Z,4.90
2018-09-05T06:56:59.481Z,4.17
2018-09-05T06:59:27.977Z,4.97
2018-09-05T07:01:56.469Z,3.10
2018-09-05T07:04:24.915Z,2.30
2018-09-05T07:06:53.341Z,2.55
2018-09-05T07:09:21.800Z,2.10
2018-09-05T07:11:50.199Z,2.98
2018-09-05T07:14:18.422Z,2.00
2018-09-05T07:16:46.853Z,1.70
2018-09-05T07:19:15.325Z,5.05
2018-09-05T07:21:43.777Z,2.58
2018-09-05T07:24:12.224Z,2.00
2018-09-05T07:26:40.632Z,3.75
2018-09-05T07:29:09.086Z,2.02
2018-09-05T07:31:37.605Z,2.52
2018-09-05T07:34:06.209Z,2.58
2018-09-05T07:36:34.628Z,2.12
2018-09-05T07:39:03.561Z,2.52
2018-09-05T07:41:31.663Z,3.08
2018-09-05T07:44:00.176Z,4.35
2018-09-05T07:46:28.614Z,3.27
2018-09-05T07:48:57.096Z,3.22
2018-09-05T07:51:25.507Z,2.98
2018-09-05T07:53:53.950Z,2.83
2018-09-05T07:56:22.364Z,2.77
2018-09-05T07:58:50.814Z,5.08
2018-09-05T08:01:19.332Z,3.60
2018-09-05T08:03:47.793Z,2.20
2018-09-05T08:06:16.326Z,3.67
2018-09-05T08:08:44.757Z,2.33
2018-09-05T08:11:13.257Z,2.77
2018-09-05T08:13:41.372Z,2.92
2018-09-05T08:16:10.229Z,5.72
2018-09-05T08:18:38.647Z,3.70
2018-09-05T08:21:07.115Z,2.60
2018-09-05T08:23:35.564Z,5.03
2018-09-05T08:26:04.209Z,2.42
2018-09-05T08:28:32.664Z,2.10
2018-09-05T08:31:01.107Z,1.90
2018-09-05T08:33:29.500Z,4.60
2018-09-05T08:35:58.318Z,2.87
2018-09-05T08:38:26.635Z,2.08
2018-09-05T08:40:55.102Z,2.58
2018-09-05T08:43:23.529Z,2.25
2018-09-05T08:45:51.913Z,6.22
2018-09-05T08:48:20.340Z,3.40
2018-09-05T08:50:48.730Z,2.90
2018-09-05T08:53:17.188Z,2.45
2018-09-05T08:55:45.721Z,4.08
2018-09-05T08:58:14.105Z,2.50
2018-09-05T09:00:42.584Z,2.40
2018-09-05T09:03:10.713Z,2.83
2018-09-05T09:05:39.240Z,3.20
2018-09-05T09:08:07.688Z,2.50
2018-09-05T09:10:36.132Z,3.25
2018-09-05T09:13:04.292Z,2.50
2018-09-05T09:15:33.072Z,3.92
2018-09-05T09:18:01.555Z,3.10
2018-09-05T09:20:30.021Z,3.08
2018-09-05T09:22:58.444Z,4.30
2018-09-05T09:25:26.903Z,4.47
2018-09-05T09:27:55.377Z,6.42
2018-09-05T09:30:23.835Z,4.28
2018-09-05T09:32:52.269Z,3.15
2018-09-05T09:35:20.762Z,4.42
2018-09-05T09:37:49.402Z,3.92
2018-09-05T09:40:17.841Z,4.78
2018-09-05T09:42:46.253Z,5.80
2018-09-05T09:45:14.388Z,4.80
2018-09-05T09:47:42.806Z,4.90
2018-09-05T09:50:11.256Z,7.42
2018-09-05T09:52:39.820Z,6.83
2018-09-05T09:55:08.213Z,7.67
2018-09-05T09:57:37.313Z,4.03
2018-09-05T10:00:06.750Z,4.67
2018-09-05T10:02:40.668Z,4.35
2018-09-05T10:05:14.577Z,4.85
2018-09-05T10:07:48.344Z,4.12
2018-09-05T10:10:22.558Z,4.08
2018-09-05T10:12:56.476Z,4.97
2018-09-05T10:15:30.370Z,6.67
2018-09-05T10:18:04.301Z,4.78
2018-09-05T10:20:32.728Z,4.80
2018-09-05T10:23:01.175Z,5.20
2018-09-05T10:25:29.605Z,9.43
2018-09-05T10:27:58.084Z,5.25
2018-09-05T10:30:26.518Z,4.55
2018-09-05T10:32:55.003Z,5.30
2018-09-05T10:35:23.449Z,4.55
2018-09-05T10:37:51.932Z,5.30
2018-09-05T10:40:20.360Z,4.83
2018-09-05T10:42:48.788Z,6.08
2018-09-05T10:45:17.203Z,5.70
2018-09-05T10:47:45.652Z,5.25
2018-09-05T10:50:13.759Z,5.25
2018-09-05T10:52:42.180Z,6.25
2018-09-05T10:55:10.585Z,6.05
2018-09-05T10:57:39.109Z,6.90
2018-09-05T11:00:07.638Z,7.17
2018-09-05T11:02:36.076Z,7.28
2018-09-05T11:05:04.556Z,8.95
2018-09-05T11:07:33.005Z,10.25
2018-09-05T11:10:01.408Z,6.47
2018-09-05T11:12:29.856Z,7.90
2018-09-05T11:14:58.277Z,8.83
2018-09-05T11:17:26.713Z,7.58
2018-09-05T11:19:55.132Z,9.70
2018-09-05T11:22:23.603Z,7.28
2018-09-05T11:24:51.740Z,10.40
2018-09-05T11:27:20.276Z,9.23
2018-09-05T11:29:48.716Z,8.28
2018-09-05T11:32:17.145Z,8.15
2018-09-05T11:34:45.601Z,6.95
2018-09-05T11:37:14.053Z,7.95
2018-09-05T11:39:42.469Z,8.40
2018-09-05T11:42:10.600Z,9.73
2018-09-05T11:44:39.119Z,7.70
2018-09-05T11:47:07.568Z,7.92
2018-09-05T11:49:36.222Z,11.83
2018-09-05T11:52:04.673Z,7.75
2018-09-05T11:54:33.153Z,10.28
2018-09-05T11:57:01.573Z,11.22
2018-09-05T11:59:30.075Z,9.48
2018-09-05T12:01:58.569Z,9.73
2018-09-05T12:04:27.018Z,8.38
2018-09-05T12:06:55.495Z,6.97
2018-09-05T12:09:24.000Z,8.83
2018-09-05T12:11:52.404Z,8.43
2018-09-05T12:14:20.946Z,8.53
2018-09-05T12:16:49.425Z,7.75
2018-09-05T12:19:17.897Z,9.20
2018-09-05T12:21:46.341Z,7.37
2018-09-05T12:24:14.808Z,7.78
2018-09-05T12:26:43.246Z,11.00
2018-09-05T12:29:12.919Z,11.30
2018-09-05T12:31:42.248Z,8.93
2018-09-05T12:34:10.572Z,9.75
2018-09-05T12:36:38.984Z,8.80
2018-09-05T12:39:08.216Z,9.73
2018-09-05T12:41:36.650Z,7.35
2018-09-05T12:44:05.133Z,9.23
2018-09-05T12:46:33.564Z,7.70
2018-09-05T12:49:02.012Z,9.35
2018-09-05T12:51:30.713Z,10.40
2018-09-05T12:53:59.336Z,9.70
2018-09-05T12:56:28.357Z,13.20
2018-09-05T12:58:56.805Z,9.20
2018-09-05T13:01:25.323Z,10.80
2018-09-05T13:03:53.819Z,8.75
2018-09-05T13:06:22.360Z,13.18
2018-09-05T13:08:50.819Z,11.68
2018-09-05T13:11:19.263Z,12.07
2018-09-05T13:13:51.740Z,15.05
2018-09-05T13:16:20.277Z,10.58
2018-09-05T13:18:48.724Z,9.48
2018-09-05T13:21:17.138Z,12.95
2018-09-05T13:23:45.291Z,9.95
2018-09-05T13:26:13.812Z,10.53
2018-09-05T13:28:42.257Z,10.15
2018-09-05T13:31:10.719Z,11.55
2018-09-05T13:33:39.212Z,11.68
2018-09-05T13:36:07.724Z,10.50
2018-09-05T13:38:36.183Z,11.55
2018-09-05T13:41:04.288Z,11.57
2018-09-05T13:43:32.708Z,12.18
2018-09-05T13:46:01.242Z,10.93
2018-09-05T13:48:29.701Z,10.82
2018-09-05T13:50:58.200Z,9.78
2018-09-05T13:53:26.664Z,9.38
2018-09-05T13:55:55.109Z,11.68
2018-09-05T13:58:23.576Z,13.70
2018-09-05T14:00:52.054Z,11.28
2018-09-05T14:03:20.140Z,12.30
2018-09-05T14:05:48.622Z,11.50
2018-09-05T14:08:17.076Z,12.58
2018-09-05T14:10:45.542Z,13.65
2018-09-05T14:13:13.992Z,11.60
2018-09-05T14:15:42.172Z,10.38
2018-09-05T14:18:10.606Z,13.28
2018-09-05T14:20:39.167Z,10.53
2018-09-05T14:23:07.716Z,12.07
2018-09-05T14:25:35.849Z,12.65
2018-09-05T14:28:04.330Z,9.90
2018-09-05T14:30:32.786Z,11.75
2018-09-05T14:33:01.224Z,12.05
2018-09-05T14:35:29.718Z,11.53
2018-09-05T14:37:57.855Z,13.05
2018-09-05T14:40:26.501Z,13.62
2018-09-05T14:42:54.928Z,11.97
2018-09-05T14:45:23.390Z,11.75
2018-09-05T14:47:51.877Z,13.48
2018-09-05T14:50:20.342Z,13.25
2018-09-05T14:52:48.873Z,12.90
2018-09-05T14:55:17.313Z,9.73
2018-09-05T14:57:45.956Z,13.88
2018-09-05T15:00:14.140Z,13.13
2018-09-05T15:02:42.559Z,13.05
2018-09-05T15:05:11.018Z,14.18
2018-09-05T15:07:43.312Z,15.28
2018-09-05T15:10:11.765Z,13.05
2018-09-05T15:12:40.173Z,17.25
2018-09-05T15:15:08.685Z,14.53
2018-09-05T15:17:37.152Z,12.15
2018-09-05T15:20:06.976Z,12.45
2018-09-05T15:22:35.576Z,14.73
2018-09-05T15:25:04.192Z,14.45
2018-09-05T15:27:32.600Z,15.48
2018-09-05T15:30:01.049Z,16.32
2018-09-05T15:32:29.501Z,13.68
2018-09-05T15:34:58.026Z,15.88
2018-09-05T15:37:26.489Z,15.23
2018-09-05T15:39:55.004Z,13.60
2018-09-05T15:42:23.504Z,18.75
2018-09-05T15:44:52.160Z,13.08
2018-09-05T15:47:20.304Z,13.15
2018-09-05T15:49:48.439Z,15.13
2018-09-05T15:52:16.904Z,14.50
2018-09-05T15:54:45.344Z,16.75
2018-09-05T15:57:13.515Z,15.15
2018-09-05T15:59:42.000Z,15.58
2018-09-05T16:02:10.228Z,16.07
2018-09-05T16:04:38.344Z,14.03
2018-09-05T16:07:07.533Z,15.93
2018-09-05T16:09:35.960Z,16.30
2018-09-05T16:12:04.459Z,14.00
2018-09-05T16:14:32.936Z,14.45
2018-09-05T16:17:01.377Z,19.32
2018-09-05T16:19:29.821Z,15.20
2018-09-05T16:21:58.062Z,16.15
2018-09-05T16:24:26.445Z,17.17
2018-09-05T16:26:54.889Z,18.05
2018-09-05T16:29:23.318Z,16.75
2018-09-05T16:31:51.887Z,16.80
2018-09-05T16:34:20.365Z,15.30
2018-09-05T16:36:48.860Z,14.98
2018-09-05T16:39:17.335Z,16.97
2018-09-05T16:41:45.845Z,17.62
2018-09-05T16:44:13.965Z,15.45
2018-09-05T16:46:42.162Z,20.15
2018-09-05T16:49:10.258Z,13.93
2018-09-05T16:51:38.784Z,12.82
2018-09-05T16:54:07.241Z,16.82
2018-09-05T16:56:35.781Z,18.02
2018-09-05T16:59:04.302Z,14.78
2018-09-05T17:01:33.433Z,15.25
2018-09-05T17:04:01.911Z,19.23
2018-09-05T17:06:30.360Z,19.17
2018-09-05T17:08:58.868Z,18.55
2018-09-05T17:11:27.329Z,16.42
2018-09-05T17:13:55.808Z,16.97
2018-09-05T17:16:24.272Z,17.98
2018-09-05T17:18:52.749Z,17.45
2018-09-05T17:21:20.876Z,15.88
2018-09-05T17:23:49.361Z,18.82
2018-09-05T17:26:17.871Z,17.55
2018-09-05T17:28:46.331Z,18.27
2018-09-05T17:31:14.880Z,16.77
2018-09-05T17:33:43.466Z,17.32
2018-09-05T17:36:11.961Z,15.70
2018-09-05T17:38:40.475Z,16.00
2018-09-05T17:41:08.944Z,20.55
2018-09-05T17:43:37.425Z,16.35
2018-09-05T17:46:05.574Z,17.77
2018-09-05T17:48:33.749Z,16.97
2018-09-05T17:51:02.252Z,18.07
2018-09-05T17:53:30.486Z,16.55
2018-09-05T17:55:58.928Z,24.12
2018-09-05T17:58:27.444Z,25.77
2018-09-05T18:00:56.208Z,25.72
2018-09-05T18:03:24.697Z,20.68
2018-09-05T18:05:53.121Z,18.98
2018-09-05T18:08:21.693Z,19.15
2018-09-05T18:10:50.094Z,18.45
2018-09-05T18:13:18.536Z,17.70
2018-09-05T18:15:46.993Z,16.52
2018-09-05T18:18:15.479Z,21.45
2018-09-05T18:20:43.945Z,18.90
2018-09-05T18:23:12.473Z,17.57
2018-09-05T18:25:40.926Z,21.55
2018-09-05T18:28:09.352Z,19.37
2018-09-05T18:30:37.800Z,22.10
2018-09-05T18:33:06.353Z,18.35
2018-09-05T18:35:34.809Z,22.22
2018-09-05T18:38:03.267Z,21.10
2018-09-05T18:40:32.281Z,19.82
2018-09-05T18:43:00.687Z,19.73
2018-09-05T18:45:29.137Z,20.77
2018-09-05T18:47:57.544Z,20.85
2018-09-05T18:50:26.001Z,22.62
2018-09-05T18:52:59.732Z,23.45
2018-09-05T18:55:28.181Z,24.47
2018-09-05T18:57:56.677Z,20.92
2018-09-05T19:00:25.364Z,22.70
2018-09-05T19:02:53.772Z,20.08
2018-09-05T19:05:22.212Z,19.48
2018-09-05T19:07:50.669Z,19.90
2018-09-05T19:10:19.151Z,19.70
2018-09-05T19:12:47.598Z,22.67
2018-09-05T19:15:16.900Z,24.85
2018-09-05T19:17:45.365Z,23.27
2018-09-05T19:20:13.824Z,22.85
2018-09-05T19:22:42.310Z,22.00
2018-09-05T19:25:10.751Z,19.90
2018-09-05T19:27:39.190Z,20.95
2018-09-05T19:30:07.672Z,20.08
2018-09-05T19:32:36.155Z,22.15
2018-09-05T19:35:04.976Z,22.67
2018-09-05T19:37:33.461Z,20.65
2018-09-05T19:40:01.924Z,18.35
2018-09-05T19:42:30.488Z,19.05
2018-09-05T19:44:58.937Z,18.02
2018-09-05T19:47:27.400Z,20.02
2018-09-05T19:49:55.590Z,20.30
2018-09-05T19:52:24.043Z,18.60
2018-09-05T19:54:52.489Z,20.25
2018-09-05T19:57:20.917Z,22.05
2018-09-05T19:59:49.366Z,20.45
2018-09-05T20:02:17.824Z,20.85
2018-09-05T20:04:46.268Z,21.05
2018-09-05T20:07:14.382Z,19.65
2018-09-05T20:09:42.910Z,19.67
2018-09-05T20:12:11.033Z,19.67
2018-09-05T20:14:39.583Z,17.65
2018-09-05T20:17:07.981Z,19.15
2018-09-05T20:19:36.426Z,20.62
2018-09-05T20:22:05.340Z,21.87
2018-09-05T20:24:33.821Z,21.45
2018-09-05T20:27:01.976Z,19.57
2018-09-05T20:29:30.405Z,19.20
2018-09-05T20:31:58.872Z,18.00
2018-09-05T20:34:27.281Z,23.77
2018-09-05T20:36:55.784Z,22.65
2018-09-05T20:39:24.200Z,17.57
2018-09-05T20:41:52.660Z,19.23
2018-09-05T20:44:20.768Z,20.52
2018-09-05T20:46:49.224Z,20.23
2018-09-05T20:49:17.661Z,18.37
2018-09-05T20:51:46.128Z,18.57
2018-09-05T20:54:14.557Z,19.52
2018-09-05T20:56:43.004Z,17.32
2018-09-05T20:59:11.513Z,15.30
2018-09-05T21:01:40.001Z,18.85
2018-09-05T21:04:08.429Z,17.80
2018-09-05T21:06:36.860Z,16.52
2018-09-05T21:09:06.900Z,15.32
2018-09-05T21:11:35.345Z,13.60
2018-09-05T21:14:03.776Z,13.78
2018-09-05T21:16:32.240Z,15.05
2018-09-05T21:19:00.664Z,14.25
2018-09-05T21:21:29.093Z,18.12
2018-09-05T21:23:57.515Z,14.15
2018-09-05T21:26:26.127Z,16.62
2018-09-05T21:28:54.584Z,16.32
2018-09-05T21:31:23.028Z,15.68
2018-09-05T21:33:51.508Z,15.80
2018-09-05T21:36:19.995Z,15.83
2018-09-05T21:38:48.420Z,16.15
2018-09-05T21:41:16.873Z,18.12
2018-09-05T21:43:45.301Z,14.15
2018-09-05T21:46:13.445Z,15.85
2018-09-05T21:48:41.889Z,14.78
2018-09-05T21:51:10.332Z,16.57
2018-09-05T21:53:38.508Z,12.37
2018-09-05T21:56:06.969Z,14.90
2018-09-05T21:58:35.431Z,13.78
2018-09-05T22:01:03.895Z,13.45
2018-09-05T22:03:32.316Z,12.00
2018-09-05T22:06:00.721Z,15.98
2018-09-05T22:08:29.208Z,11.38
2018-09-05T22:11:01.833Z,16.20
2018-09-05T22:13:30.342Z,16.30
2018-09-05T22:15:58.703Z,12.68
2018-09-05T22:18:27.141Z,15.68
2018-09-05T22:20:55.592Z,13.45
2018-09-05T22:23:24.121Z,19.02
2018-09-05T22:25:52.534Z,15.03
2018-09-05T22:28:21.026Z,13.20
2018-09-05T22:30:49.465Z,17.77
2018-09-05T22:33:17.636Z,12.80
2018-09-05T22:35:46.113Z,13.55
2018-09-05T22:38:14.590Z,13.80
2018-09-05T22:40:48.432Z,13.43
2018-09-05T22:43:28.149Z,13.45
2018-09-05T22:46:07.789Z,11.50
2018-09-05T22:48:49.072Z,15.40
2018-09-05T22:55:46.026Z,15.38
2018-09-05T22:59:24.753Z,13.10
2018-09-05T23:02:04.673Z,16.70
2018-09-05T23:04:45.915Z,15.05
2018-09-05T23:07:25.478Z,15.68
2018-09-05T23:11:06.378Z,15.48
2018-09-05T23:13:46.098Z,15.80
2018-09-05T23:17:23.101Z,15.83
2018-09-05T23:20:03.367Z,12.50
2018-09-05T23:22:43.057Z,14.05
2018-09-05T23:25:11.697Z,12.63
2018-09-05T23:27:40.218Z,12.00
2018-09-05T23:30:08.682Z,12.93
2018-09-05T23:32:36.812Z,12.73
2018-09-05T23:35:05.329Z,13.00
2018-09-05T23:37:33.861Z,13.30
2018-09-05T23:40:02.320Z,13.80
2018-09-05T23:42:30.749Z,15.83
2018-09-05T23:44:59.193Z,12.93
2018-09-05T23:47:27.539Z,13.60
2018-09-05T23:49:55.990Z,11.63
2018-09-05T23:52:24.474Z,13.78
2018-09-05T23:54:52.923Z,16.70
2018-09-05T23:57:21.418Z,17.57
2018-09-05T23:59:49.870Z,15.80
